Time;durP1;ratioP1;P1;durP2;ratioP2;P2;SDS_P1;SDS_P2;PMS_P1;PMS_P2;Temp;Humidity;BMP_temperature;BMP_pressure;BME280_temperature;BME280_humidity;BME280_pressure;Samples;Min_cycle;Max_cycle;Signal;HPM_P1;HPM_P2
2022/10/20 00:00:04;;;;;;;7.97;4.90;;;7.20;99.90;;;;;;5076366;28;20039;-50
2022/10/20 00:02:30;;;;;;;8.23;5.53;;;7.20;99.90;;;;;;5094893;28;20488;-54
2022/10/20 00:04:55;;;;;;;9.75;5.20;;;7.20;99.90;;;;;;5094286;28;20024;-50
2022/10/20 00:07:21;;;;;;;9.38;5.72;;;7.20;99.90;;;;;;5094213;28;20091;-54
2022/10/20 00:09:47;;;;;;;7.38;4.65;;;7.20;99.90;;;;;;5093478;28;20139;-51
2022/10/20 00:12:12;;;;;;;8.00;4.60;;;7.20;99.90;;;;;;5093671;28;20431;-48
2022/10/20 00:14:38;;;;;;;9.75;5.60;;;7.20;99.90;;;;;;5094623;28;20095;-52
2022/10/20 00:17:05;;;;;;;10.48;5.20;;;7.10;99.90;;;;;;5094190;28;20035;-50
2022/10/20 00:19:31;;;;;;;8.02;5.07;;;7.20;99.90;;;;;;5093833;28;20031;-53
2022/10/20 00:21:57;;;;;;;10.75;5.20;;;7.10;99.90;;;;;;5094073;28;20069;-55
2022/10/20 00:24:23;;;;;;;8.15;5.15;;;7.10;99.90;;;;;;5094423;28;20044;-50
2022/10/20 00:26:49;;;;;;;11.27;6.10;;;7.10;99.90;;;;;;5093845;28;20063;-51
2022/10/20 00:29:14;;;;;;;8.32;4.78;;;7.10;99.90;;;;;;5094182;28;20059;-49
2022/10/20 00:31:40;;;;;;;15.52;5.55;;;7.10;99.90;;;;;;5094448;28;20034;-56
2022/10/20 00:34:05;;;;;;;7.78;4.68;;;7.10;99.90;;;;;;5093893;28;20037;-60
2022/10/20 00:36:31;;;;;;;11.13;6.78;;;7.10;99.90;;;;;;5097471;28;20082;-53
2022/10/20 00:39:02;;;;;;;8.90;5.00;;;7.10;99.90;;;;;;5098523;28;20046;-52
2022/10/20 00:41:28;;;;;;;;;;;7.10;99.90;;;;;;5094024;28;20020;-53
2022/10/20 00:44:18;;;;;;;8.75;4.95;;;7.10;99.90;;;;;;5093924;28;19904;-52
2022/10/20 00:46:43;;;;;;;8.38;4.40;;;7.00;99.90;;;;;;5093848;28;20059;-55
2022/10/20 00:49:21;;;;;;;7.22;4.55;;;7.00;99.90;;;;;;5092970;28;20051;-54
2022/10/20 00:51:49;;;;;;;10.90;5.53;;;7.00;99.90;;;;;;5093863;28;20073;-55
2022/10/20 00:54:19;;;;;;;8.48;4.90;;;7.00;99.90;;;;;;5092864;28;20081;-54
2022/10/20 00:56:46;;;;;;;10.77;5.57;;;6.90;99.90;;;;;;5093860;28;20024;-48
2022/10/20 00:59:15;;;;;;;9.45;4.40;;;7.00;99.90;;;;;;5093555;28;20059;-52
2022/10/20 01:01:42;;;;;;;8.20;4.57;;;6.90;99.90;;;;;;5093142;28;20032;-54
2022/10/20 01:04:07;;;;;;;9.63;5.65;;;6.90;99.90;;;;;;5093485;28;20107;-53
2022/10/20 01:06:33;;;;;;;10.85;5.75;;;6.90;99.90;;;;;;5093618;28;20020;-52
2022/10/20 01:08:59;;;;;;;9.75;5.50;;;6.90;99.90;;;;;;5089643;28;20040;-56
2022/10/20 01:11:30;;;;;;;9.57;5.40;;;6.90;99.90;;;;;;5093176;28;20020;-48
2022/10/20 01:14:37;;;;;;;9.85;4.93;;;6.90;99.90;;;;;;5093477;28;20407;-52
2022/10/20 01:17:14;;;;;;;10.63;5.00;;;6.90;99.90;;;;;;5047311;28;20040;-54
2022/10/20 01:20:15;;;;;;;7.93;4.82;;;6.90;99.90;;;;;;5093158;28;20024;-50
2022/10/20 01:22:59;;;;;;;10.88;5.47;;;6.90;99.90;;;;;;5077763;28;20503;-52
2022/10/20 01:25:31;;;;;;;8.65;5.13;;;6.90;99.90;;;;;;5093157;28;20043;-51
2022/10/20 01:28:22;;;;;;;8.40;4.70;;;6.80;99.90;;;;;;5092757;28;20027;-52
2022/10/20 01:30:58;;;;;;;7.68;4.60;;;6.80;99.90;;;;;;5091943;28;20040;-56
2022/10/20 01:33:43;;;;;;;9.73;5.20;;;6.80;99.90;;;;;;5093021;28;20023;-54
2022/10/20 01:36:25;;;;;;;9.73;4.88;;;6.80;99.90;;;;;;5090424;28;20115;-50
2022/10/20 01:39:00;;;;;;;7.55;4.57;;;6.80;99.90;;;;;;5092469;28;20039;-51
2022/10/20 01:41:49;;;;;;;8.35;4.88;;;6.70;99.90;;;;;;5093019;28;20076;-51
2022/10/20 01:44:16;;;;;;;8.68;4.43;;;6.70;99.90;;;;;;5091797;28;20028;-51
2022/10/20 01:46:43;;;;;;;9.32;4.43;;;6.70;99.90;;;;;;5092682;28;20016;-50
2022/10/20 01:49:11;;;;;;;6.55;4.25;;;6.60;99.90;;;;;;5092371;28;20024;-56
2022/10/20 01:51:37;;;;;;;8.68;4.88;;;6.70;99.90;;;;;;5092161;28;20038;-55
2022/10/20 01:54:02;;;;;;;9.07;5.22;;;6.60;99.90;;;;;;5092465;28;20119;-51
2022/10/20 01:57:19;;;;;;;8.48;4.65;;;6.60;99.90;;;;;;5091020;28;20054;-56
2022/10/20 02:00:04;;;;;;;8.63;4.95;;;6.70;99.90;;;;;;5058534;28;20044;-55
2022/10/20 02:02:53;;;;;;;9.10;5.50;;;6.70;99.90;;;;;;5092485;28;20050;-56
2022/10/20 02:05:21;;;;;;;9.02;5.05;;;6.70;99.90;;;;;;5091591;28;20024;-50
2022/10/20 02:07:47;;;;;;;11.35;5.97;;;6.70;99.90;;;;;;5092172;28;20107;-50
2022/10/20 02:10:21;;;;;;;9.85;5.60;;;6.70;99.90;;;;;;5092201;28;20492;-50
2022/10/20 02:12:52;;;;;;;9.68;4.82;;;6.70;99.90;;;;;;5090628;28;20074;-49
2022/10/20 02:15:23;;;;;;;12.75;5.50;;;6.70;99.90;;;;;;5092038;28;20081;-50
2022/10/20 02:17:56;;;;;;;9.37;5.90;;;6.70;99.90;;;;;;5092076;28;20050;-63
2022/10/20 02:20:22;;;;;;;8.10;4.80;;;6.70;99.90;;;;;;5091597;28;20023;-52
2022/10/20 02:22:48;;;;;;;8.73;4.43;;;6.70;99.90;;;;;;5092071;28;20068;-59
2022/10/20 02:25:14;;;;;;;9.77;4.38;;;6.70;99.90;;;;;;5092215;28;20016;-60
2022/10/20 02:27:44;;;;;;;8.55;4.95;;;6.60;99.90;;;;;;5091830;28;20100;-63
2022/10/20 02:30:13;;;;;;;9.40;4.87;;;6.70;99.90;;;;;;5091943;28;20020;-53
2022/10/20 02:32:40;;;;;;;12.50;5.20;;;6.60;99.90;;;;;;5091489;28;20020;-53
2022/10/20 02:35:11;;;;;;;11.00;4.75;;;6.60;99.90;;;;;;5091594;28;20012;-51
2022/10/20 02:37:36;;;;;;;8.65;5.22;;;6.70;99.90;;;;;;5091859;28;20036;-51
2022/10/20 02:40:02;;;;;;;8.55;4.57;;;6.70;99.90;;;;;;5090922;28;20035;-56
2022/10/20 02:42:28;;;;;;;6.50;4.30;;;6.70;99.90;;;;;;5092886;28;20028;-60
2022/10/20 02:44:54;;;;;;;7.50;4.47;;;6.70;99.90;;;;;;5099448;28;20480;-62
2022/10/20 02:47:21;;;;;;;11.07;4.88;;;6.70;99.90;;;;;;5099418;28;20024;-57
2022/10/20 02:49:47;;;;;;;7.25;4.70;;;6.70;99.90;;;;;;5091305;28;20044;-56
2022/10/20 02:52:13;;;;;;;10.93;5.18;;;6.70;99.90;;;;;;5091333;28;20124;-56
2022/10/20 02:54:39;;;;;;;9.23;5.00;;;6.70;99.90;;;;;;5091310;28;20141;-55
2022/10/20 02:57:04;;;;;;;9.82;5.28;;;6.70;99.90;;;;;;5091460;28;20115;-53
2022/10/20 02:59:30;;;;;;;9.10;4.45;;;6.70;99.90;;;;;;5091643;28;20170;-56
2022/10/20 03:01:56;;;;;;;9.82;5.20;;;6.70;99.90;;;;;;5091057;28;20357;-53
2022/10/20 03:04:21;;;;;;;11.05;4.75;;;6.70;99.90;;;;;;5091327;28;20028;-55
2022/10/20 03:06:47;;;;;;;9.55;5.07;;;6.70;99.90;;;;;;5091753;28;20028;-51
2022/10/20 03:09:12;;;;;;;8.38;5.65;;;6.70;99.90;;;;;;5086946;28;20122;-52
2022/10/20 03:11:38;;;;;;;9.77;5.18;;;6.70;99.90;;;;;;5089857;28;20122;-54
2022/10/20 03:14:04;;;;;;;9.50;4.78;;;6.70;99.90;;;;;;5089711;28;20028;-52
2022/10/20 03:16:29;;;;;;;8.95;4.85;;;6.70;99.90;;;;;;5091018;28;20099;-52
2022/10/20 03:18:55;;;;;;;9.90;4.90;;;6.70;99.90;;;;;;5091440;28;20029;-49
2022/10/20 03:21:20;;;;;;;8.77;5.15;;;6.70;99.90;;;;;;5091410;28;20028;-52
2022/10/20 03:23:46;;;;;;;8.95;4.63;;;6.70;99.90;;;;;;5090575;28;20048;-54
2022/10/20 03:26:12;;;;;;;8.40;4.40;;;6.70;99.90;;;;;;5091409;28;20020;-51
2022/10/20 03:28:39;;;;;;;8.50;4.88;;;6.70;99.90;;;;;;5091240;28;20020;-53
2022/10/20 03:31:05;;;;;;;10.10;5.80;;;6.70;99.90;;;;;;5091233;28;20433;-50
2022/10/20 03:33:30;;;;;;;8.52;5.38;;;6.70;99.90;;;;;;5091364;28;20032;-53
2022/10/20 03:35:56;;;;;;;9.57;5.55;;;6.70;99.90;;;;;;5085372;28;20020;-58
2022/10/20 03:38:22;;;;;;;9.65;5.78;;;6.70;99.90;;;;;;5070709;28;20032;-53
2022/10/20 03:40:48;;;;;;;9.20;4.60;;;6.70;99.90;;;;;;5071078;28;20071;-55
2022/10/20 03:43:16;;;;;;;7.47;4.80;;;6.70;99.90;;;;;;5070252;28;20044;-51
2022/10/20 03:45:42;;;;;;;8.68;4.50;;;6.70;99.90;;;;;;5070829;28;20100;-54
2022/10/20 03:48:09;;;;;;;9.68;4.80;;;6.70;99.90;;;;;;5070266;28;20103;-56
2022/10/20 03:50:41;;;;;;;8.15;4.82;;;6.70;99.90;;;;;;5069832;28;20032;-54
2022/10/20 03:53:07;;;;;;;9.35;4.55;;;6.60;99.90;;;;;;5071146;28;20024;-54
2022/10/20 03:55:32;;;;;;;8.40;4.97;;;6.70;99.90;;;;;;5070522;28;20431;-56
2022/10/20 03:57:58;;;;;;;9.07;5.05;;;6.60;99.90;;;;;;5070586;28;20016;-56
2022/10/20 04:00:24;;;;;;;11.20;5.55;;;6.60;99.90;;;;;;5072516;28;20043;-55
2022/10/20 04:02:50;;;;;;;9.63;5.10;;;6.70;99.90;;;;;;5074058;28;20335;-58
2022/10/20 04:05:18;;;;;;;12.15;4.90;;;6.70;99.90;;;;;;5074338;28;20060;-55
2022/10/20 04:07:44;;;;;;;10.88;5.10;;;6.70;99.90;;;;;;5083675;28;20039;-56
2022/10/20 04:10:14;;;;;;;9.07;5.25;;;6.70;99.90;;;;;;5098024;28;20051;-56
2022/10/20 04:12:40;;;;;;;9.50;5.40;;;6.70;99.90;;;;;;5093631;28;20024;-56
2022/10/20 04:15:06;;;;;;;10.05;5.40;;;6.70;99.90;;;;;;5092958;28;20024;-57
2022/10/20 04:17:33;;;;;;;8.25;5.22;;;6.70;99.90;;;;;;5092437;28;20086;-56
2022/10/20 04:19:58;;;;;;;10.70;6.07;;;6.70;99.90;;;;;;5093943;28;20111;-53
2022/10/20 04:22:24;;;;;;;9.50;5.03;;;6.70;99.90;;;;;;5094211;28;20126;-52
2022/10/20 04:24:49;;;;;;;11.18;5.10;;;6.70;99.90;;;;;;5093688;28;20028;-57
2022/10/20 04:27:15;;;;;;;8.20;4.80;;;6.70;99.90;;;;;;5094018;28;20491;-53
2022/10/20 04:29:41;;;;;;;8.35;4.55;;;6.70;99.90;;;;;;5094288;28;20079;-60
2022/10/20 04:32:06;;;;;;;9.48;5.50;;;6.70;99.90;;;;;;5093553;28;20368;-54
2022/10/20 04:34:32;;;;;;;12.15;5.82;;;6.80;99.90;;;;;;5094152;28;20024;-55
2022/10/20 04:36:58;;;;;;;11.52;5.95;;;6.70;99.90;;;;;;5093919;28;20016;-58
2022/10/20 04:39:24;;;;;;;10.55;5.53;;;6.80;99.90;;;;;;5093803;28;20024;-60
2022/10/20 04:41:50;;;;;;;9.13;5.38;;;6.80;99.90;;;;;;5094393;28;20028;-52
2022/10/20 04:44:15;;;;;;;12.30;5.90;;;6.70;99.90;;;;;;5093258;28;20020;-50
2022/10/20 04:46:41;;;;;;;14.35;5.47;;;6.80;99.90;;;;;;5094143;28;20016;-49
2022/10/20 04:49:07;;;;;;;7.60;4.38;;;6.80;99.90;;;;;;5094824;28;20480;-48
2022/10/20 04:51:32;;;;;;;10.27;4.78;;;6.80;99.90;;;;;;5091159;28;20024;-49
2022/10/20 04:53:58;;;;;;;8.15;4.43;;;6.70;99.90;;;;;;5100756;28;20024;-49
2022/10/20 04:56:24;;;;;;;9.82;4.82;;;6.70;99.90;;;;;;5093942;28;20129;-54
2022/10/20 04:58:55;;;;;;;10.68;5.43;;;6.80;99.90;;;;;;5093190;28;20035;-59
2022/10/20 05:01:26;;;;;;;10.45;4.78;;;6.80;99.90;;;;;;5099238;28;20105;-53
2022/10/20 05:03:52;;;;;;;10.93;5.95;;;6.80;99.90;;;;;;5094416;28;20035;-56
2022/10/20 05:06:24;;;;;;;8.77;5.75;;;6.80;99.90;;;;;;5092669;28;20012;-54
2022/10/20 05:08:52;;;;;;;8.25;5.00;;;6.90;99.90;;;;;;5093156;28;20036;-55
2022/10/20 05:11:19;;;;;;;8.27;4.60;;;6.90;99.90;;;;;;5092315;28;20020;-54
2022/10/20 05:13:45;;;;;;;10.18;5.68;;;6.90;99.90;;;;;;5093331;28;20032;-65
2022/10/20 05:16:11;;;;;;;10.02;5.85;;;6.90;99.90;;;;;;5093314;28;20038;-51
2022/10/20 05:18:37;;;;;;;9.45;5.35;;;6.90;99.90;;;;;;5091483;28;20024;-56
2022/10/20 05:21:12;;;;;;;9.38;4.85;;;6.90;99.90;;;;;;5092511;28;20436;-56
2022/10/20 05:23:39;;;;;;;12.55;5.35;;;7.00;99.90;;;;;;5092834;28;20534;-50
2022/10/20 05:26:07;;;;;;;10.15;5.35;;;7.00;99.90;;;;;;5093051;28;20446;-55
2022/10/20 05:28:33;;;;;;;12.00;5.18;;;7.00;99.90;;;;;;5092601;28;20396;-48
2022/10/20 05:31:06;;;;;;;9.15;4.47;;;7.00;99.90;;;;;;5093133;28;20028;-51
2022/10/20 05:33:33;;;;;;;10.50;5.10;;;7.00;99.90;;;;;;5091348;28;20048;-54
2022/10/20 05:35:58;;;;;;;9.13;5.13;;;7.10;99.90;;;;;;5091762;28;20448;-54
2022/10/20 05:38:24;;;;;;;12.15;5.72;;;7.10;99.90;;;;;;5092825;28;20034;-55
2022/10/20 05:40:50;;;;;;;12.55;5.55;;;7.10;99.90;;;;;;5092376;28;20059;-56
2022/10/20 05:43:16;;;;;;;12.13;6.18;;;7.20;99.90;;;;;;5091189;28;20418;-60
2022/10/20 05:45:41;;;;;;;9.57;5.68;;;7.20;99.90;;;;;;5093190;28;20023;-54
2022/10/20 05:48:07;;;;;;;10.45;5.57;;;7.20;99.90;;;;;;5090899;28;20488;-55
2022/10/20 05:50:33;;;;;;;9.38;5.05;;;7.20;99.90;;;;;;5093524;28;20040;-56
2022/10/20 05:52:58;;;;;;;10.63;5.60;;;7.20;99.90;;;;;;5093095;28;20472;-53
2022/10/20 05:55:24;;;;;;;12.02;5.82;;;7.20;99.90;;;;;;5092364;28;20031;-55
2022/10/20 05:57:51;;;;;;;11.93;6.50;;;7.20;99.90;;;;;;5091608;28;20103;-56
2022/10/20 06:00:28;;;;;;;11.75;6.22;;;7.20;99.90;;;;;;5092395;28;20396;-56
2022/10/20 06:02:54;;;;;;;10.52;5.85;;;7.30;99.90;;;;;;5092408;28;20086;-58
2022/10/20 06:05:20;;;;;;;11.77;6.10;;;7.30;99.90;;;;;;5090986;28;20480;-54
2022/10/20 06:07:47;;;;;;;11.18;6.05;;;7.30;99.90;;;;;;5092758;28;20022;-56
2022/10/20 06:10:12;;;;;;;12.27;6.60;;;7.30;99.90;;;;;;5091625;28;20024;-56
2022/10/20 06:12:38;;;;;;;11.52;5.88;;;7.30;99.90;;;;;;5092549;28;20384;-52
2022/10/20 06:15:04;;;;;;;10.77;5.85;;;7.20;99.90;;;;;;5092210;28;20044;-56
2022/10/20 06:17:29;;;;;;;12.77;6.22;;;7.20;99.90;;;;;;5091511;28;20025;-54
2022/10/20 06:19:55;;;;;;;10.00;5.65;;;7.20;99.90;;;;;;5092294;28;20111;-52
2022/10/20 06:22:20;;;;;;;10.23;5.78;;;7.20;99.90;;;;;;5091991;28;20044;-54
2022/10/20 06:24:46;;;;;;;12.35;5.72;;;7.20;99.90;;;;;;5091679;28;20354;-54
2022/10/20 06:27:11;;;;;;;14.48;5.35;;;7.30;99.90;;;;;;5092010;28;20095;-54
2022/10/20 06:29:37;;;;;;;11.52;6.50;;;7.30;99.90;;;;;;5091963;28;20039;-58
2022/10/20 06:32:03;;;;;;;13.02;6.38;;;7.30;99.90;;;;;;5091016;28;20035;-56
2022/10/20 06:34:28;;;;;;;11.93;6.82;;;7.30;99.90;;;;;;5091962;28;20068;-56
2022/10/20 06:36:54;;;;;;;12.50;6.65;;;7.40;99.90;;;;;;5091331;28;20080;-56
2022/10/20 06:39:22;;;;;;;11.77;6.50;;;7.40;99.90;;;;;;5091614;28;20084;-58
2022/10/20 06:41:49;;;;;;;12.38;6.03;;;7.40;99.90;;;;;;5091997;28;20024;-53
2022/10/20 06:44:16;;;;;;;12.30;5.95;;;7.40;99.90;;;;;;5090860;28;20024;-58
2022/10/20 06:46:42;;;;;;;12.43;5.93;;;7.50;99.90;;;;;;5084159;28;20078;-49
2022/10/20 06:49:10;;;;;;;12.57;5.75;;;7.50;99.90;;;;;;5070298;28;20369;-52
2022/10/20 06:51:36;;;;;;;12.32;6.50;;;7.50;99.90;;;;;;5091037;28;20464;-65
2022/10/20 06:54:03;;;;;;;13.38;7.13;;;7.50;99.90;;;;;;5095103;28;20024;-53
2022/10/20 06:56:30;;;;;;;12.75;6.97;;;7.50;99.90;;;;;;5097841;28;20475;-52
2022/10/20 06:58:58;;;;;;;11.32;6.72;;;7.50;99.90;;;;;;5111957;28;20075;-51
2022/10/20 07:01:32;;;;;;;11.45;6.53;;;7.60;99.90;;;;;;5100088;28;20024;-53
2022/10/20 07:04:01;;;;;;;13.00;6.97;;;7.60;99.90;;;;;;5093589;28;20487;-54
2022/10/20 07:06:35;;;;;;;15.23;7.40;;;7.60;99.90;;;;;;5091342;28;20024;-53
2022/10/20 07:09:07;;;;;;;14.20;7.18;;;7.70;99.90;;;;;;5091623;28;20089;-57
2022/10/20 07:11:33;;;;;;;11.25;6.25;;;7.70;99.90;;;;;;5091309;28;20431;-50
2022/10/20 07:14:01;;;;;;;12.27;6.53;;;7.80;99.90;;;;;;5103361;28;20020;-60
2022/10/20 07:16:29;;;;;;;11.02;6.07;;;7.80;99.90;;;;;;5092102;28;20111;-53
2022/10/20 07:18:56;;;;;;;12.35;6.30;;;7.90;99.90;;;;;;5090716;28;20036;-54
2022/10/20 07:21:25;;;;;;;12.93;6.50;;;8.00;99.90;;;;;;5091514;28;20035;-56
2022/10/20 07:23:51;;;;;;;11.23;6.00;;;8.00;99.90;;;;;;5091441;28;20064;-55
2022/10/20 07:26:23;;;;;;;12.32;6.45;;;8.10;99.90;;;;;;5090463;28;20020;-56
2022/10/20 07:28:53;;;;;;;14.10;6.85;;;8.20;99.90;;;;;;5090014;28;20051;-55
2022/10/20 07:31:25;;;;;;;11.57;6.00;;;8.20;99.90;;;;;;5091678;28;20097;-55
2022/10/20 07:33:51;;;;;;;10.95;5.93;;;8.30;99.90;;;;;;5090675;28;20047;-51
2022/10/20 07:36:23;;;;;;;11.52;6.40;;;8.40;99.90;;;;;;5094282;28;20020;-57
2022/10/20 07:38:51;;;;;;;14.82;7.97;;;8.40;99.90;;;;;;5095196;28;20534;-54
2022/10/20 07:41:16;;;;;;;12.48;6.68;;;8.50;99.90;;;;;;5094662;28;20024;-57
2022/10/20 07:43:43;;;;;;;12.68;7.25;;;8.60;99.90;;;;;;5094025;28;20016;-62
2022/10/20 07:46:11;;;;;;;14.15;6.93;;;8.70;99.90;;;;;;5095120;28;20024;-60
2022/10/20 07:48:37;;;;;;;15.07;7.70;;;8.70;99.90;;;;;;5094785;28;20035;-56
2022/10/20 07:51:35;;;;;;;12.75;7.05;;;8.80;99.90;;;;;;5095180;28;20062;-56
2022/10/20 07:54:04;;;;;;;16.58;8.55;;;8.90;99.90;;;;;;5070997;28;20054;-52
2022/10/20 07:56:32;;;;;;;15.15;8.43;;;9.00;99.90;;;;;;5093487;28;20028;-55
2022/10/20 07:58:58;;;;;;;14.52;8.45;;;9.00;99.90;;;;;;5094451;28;20028;-50
2022/10/20 08:01:24;;;;;;;14.23;8.27;;;9.20;99.90;;;;;;5094228;28;20078;-53
2022/10/20 08:03:50;;;;;;;13.88;7.72;;;9.20;99.90;;;;;;5095007;28;20110;-58
2022/10/20 08:06:15;;;;;;;12.40;7.75;;;9.30;99.90;;;;;;5093476;28;20063;-54
2022/10/20 08:08:41;;;;;;;14.60;8.05;;;9.40;99.90;;;;;;5092695;28;20028;-53
2022/10/20 08:11:07;;;;;;;15.40;8.38;;;9.40;99.90;;;;;;5094184;28;20063;-54
2022/10/20 08:13:32;;;;;;;14.48;7.82;;;9.40;99.90;;;;;;5094645;28;20031;-67
2022/10/20 08:15:59;;;;;;;13.05;7.43;;;9.50;99.90;;;;;;5094014;28;20440;-53
2022/10/20 08:18:25;;;;;;;14.77;8.60;;;9.50;99.90;;;;;;5094339;28;20052;-51
2022/10/20 08:20:51;;;;;;;17.70;8.00;;;9.60;99.90;;;;;;5094547;28;20067;-52
2022/10/20 08:23:16;;;;;;;13.95;7.97;;;9.60;99.90;;;;;;5092049;28;20036;-58
2022/10/20 08:25:42;;;;;;;12.88;7.50;;;9.70;99.90;;;;;;5094061;28;20036;-51
2022/10/20 08:28:08;;;;;;;15.07;7.78;;;9.80;99.90;;;;;;5094082;28;20024;-57
2022/10/20 08:30:35;;;;;;;18.27;8.80;;;9.80;99.90;;;;;;5093983;28;20032;-58
2022/10/20 08:33:01;;;;;;;13.55;8.15;;;9.90;99.90;;;;;;5093929;28;20024;-56
2022/10/20 08:35:26;;;;;;;12.95;7.90;;;9.90;99.90;;;;;;5094582;28;20051;-56
2022/10/20 08:37:53;;;;;;;17.23;9.73;;;9.90;99.90;;;;;;5093222;28;20494;-57
2022/10/20 08:40:24;;;;;;;14.60;9.07;;;10.00;99.90;;;;;;5093678;28;20032;-57
2022/10/20 08:42:50;;;;;;;13.25;7.80;;;10.10;99.90;;;;;;5094158;28;20555;-58
2022/10/20 08:45:23;;;;;;;13.90;8.20;;;10.20;99.90;;;;;;5093235;28;20124;-58
2022/10/20 08:47:52;;;;;;;16.90;7.97;;;10.30;99.90;;;;;;5091191;28;20046;-57
2022/10/20 08:50:20;;;;;;;16.52;8.65;;;10.40;99.90;;;;;;5093560;28;20031;-53
2022/10/20 08:52:50;;;;;;;17.30;8.50;;;10.50;99.90;;;;;;5090577;28;20105;-57
2022/10/20 08:55:36;;;;;;;18.65;8.77;;;10.60;99.90;;;;;;5101619;28;20160;-56
2022/10/20 08:58:11;;;;;;;14.13;8.50;;;10.70;99.90;;;;;;5083787;28;20028;-54
2022/10/20 09:00:38;;;;;;;12.88;7.78;;;10.80;99.90;;;;;;5090139;28;20100;-63
2022/10/20 09:03:31;;;;;;;17.77;9.13;;;10.80;99.90;;;;;;5078741;28;20028;-63
2022/10/20 09:06:12;;;;;;;13.93;8.02;;;11.00;99.90;;;;;;5094200;28;20040;-51
2022/10/20 09:08:39;;;;;;;13.95;8.57;;;11.00;99.90;;;;;;5096702;28;20032;-53
2022/10/20 09:11:07;;;;;;;13.68;7.97;;;11.10;99.90;;;;;;5097071;28;20024;-54
2022/10/20 09:13:35;;;;;;;11.50;7.20;;;11.10;99.90;;;;;;5094227;28;20106;-55
2022/10/20 09:16:05;;;;;;;15.32;8.75;;;11.20;99.90;;;;;;5092571;28;20047;-55
2022/10/20 09:18:33;;;;;;;14.80;9.17;;;11.20;99.90;;;;;;5083095;28;20039;-53
2022/10/20 09:21:15;;;;;;;15.55;9.32;;;11.30;99.90;;;;;;5072456;28;20291;-55
2022/10/20 09:23:48;;;;;;;17.42;8.35;;;11.40;99.90;;;;;;5088834;28;20386;-55
2022/10/20 09:26:20;;;;;;;15.38;9.13;;;11.40;99.90;;;;;;5092111;28;20486;-58
2022/10/20 09:29:12;;;;;;;16.33;8.40;;;11.60;99.90;;;;;;5091338;28;20373;-58
2022/10/20 09:31:42;;;;;;;19.70;9.68;;;11.70;99.90;;;;;;5092349;28;20020;-56
2022/10/20 09:34:30;;;;;;;14.30;8.38;;;11.80;99.90;;;;;;5091548;28;20032;-55
2022/10/20 09:37:10;;;;;;;17.08;8.90;;;11.90;99.90;;;;;;5076432;28;20066;-59
2022/10/20 09:39:53;;;;;;;18.23;10.15;;;12.00;99.90;;;;;;5096250;28;20032;-55
2022/10/20 09:42:27;;;;;;;12.82;8.75;;;12.20;99.90;;;;;;5073859;28;20029;-56
2022/10/20 09:45:03;;;;;;;17.58;9.15;;;12.30;99.90;;;;;;5089040;28;20024;-54
2022/10/20 09:47:29;;;;;;;13.88;8.05;;;12.40;99.90;;;;;;5091285;28;20087;-58
2022/10/20 09:50:01;;;;;;;13.68;7.97;;;12.40;99.90;;;;;;5104221;28;20455;-56
2022/10/20 09:52:32;;;;;;;15.23;8.70;;;12.50;99.90;;;;;;5091142;28;20031;-56
2022/10/20 09:55:06;;;;;;;14.00;8.80;;;12.60;99.90;;;;;;5088311;28;20020;-56
2022/10/20 09:57:33;;;;;;;16.90;9.07;;;12.70;99.90;;;;;;5104377;28;20477;-57
2022/10/20 09:59:59;;;;;;;11.82;7.80;;;12.70;99.90;;;;;;5091323;28;20043;-60
2022/10/20 10:02:28;;;;;;;13.30;8.13;;;12.80;99.90;;;;;;5090458;28;20047;-59
2022/10/20 10:05:18;;;;;;;15.13;9.18;;;12.90;99.90;;;;;;5086282;28;20031;-53
2022/10/20 10:07:43;;;;;;;14.18;8.35;;;13.00;99.90;;;;;;5071226;28;20054;-53
2022/10/20 10:10:18;;;;;;;15.32;8.38;;;13.00;99.90;;;;;;5099656;28;20020;-53
2022/10/20 10:12:54;;;;;;;16.58;9.05;;;13.00;99.90;;;;;;5096046;28;20106;-58
2022/10/20 10:15:32;;;;;;;13.77;8.85;;;12.90;99.90;;;;;;5091066;28;20075;-54
2022/10/20 10:17:59;;;;;;;14.02;8.00;;;12.90;99.90;;;;;;5073237;28;20032;-55
2022/10/20 10:20:28;;;;;;;12.88;8.70;;;12.90;99.90;;;;;;5072047;28;20046;-54
2022/10/20 10:23:07;;;;;;;15.13;8.43;;;12.90;99.90;;;;;;5092296;28;20036;-52
2022/10/20 10:25:32;;;;;;;13.00;7.18;;;12.90;99.90;;;;;;5088171;28;20033;-58
2022/10/20 10:28:02;;;;;;;13.05;7.75;;;12.90;99.90;;;;;;5094142;28;20472;-57
2022/10/20 10:30:33;;;;;;;14.70;9.05;;;13.00;99.90;;;;;;5091180;28;20032;-59
2022/10/20 10:32:59;;;;;;;14.00;7.30;;;13.10;99.90;;;;;;5090686;28;20051;-55
2022/10/20 10:35:40;;;;;;;12.07;7.72;;;13.10;99.90;;;;;;5071584;28;20456;-57
2022/10/20 10:38:10;;;;;;;14.63;8.98;;;13.10;99.90;;;;;;5087372;28;20396;-52
2022/10/20 10:40:54;;;;;;;14.90;8.98;;;13.20;99.90;;;;;;5091499;28;20036;-58
2022/10/20 10:43:41;;;;;;;20.48;9.82;;;13.10;99.90;;;;;;5089901;28;20245;-58
2022/10/20 10:46:18;;;;;;;18.55;8.95;;;13.20;99.90;;;;;;5092968;28;20031;-55
2022/10/20 10:48:53;;;;;;;16.92;9.18;;;13.20;99.90;;;;;;5091334;28;20077;-56
2022/10/20 10:51:43;;;;;;;17.80;9.65;;;13.20;99.90;;;;;;5088877;28;20016;-53
2022/10/20 10:54:43;;;;;;;17.05;9.88;;;13.20;99.90;;;;;;5089647;28;20028;-53
2022/10/20 10:57:23;;;;;;;16.85;9.57;;;13.20;99.90;;;;;;5093408;28;20055;-54
2022/10/20 10:59:51;;;;;;;16.00;9.05;;;13.20;99.90;;;;;;5094918;28;20035;-55
2022/10/20 11:02:46;;;;;;;17.80;9.80;;;13.20;99.90;;;;;;5090407;28;20042;-56
2022/10/20 11:05:40;;;;;;;17.33;10.35;;;13.20;99.90;;;;;;5088267;28;20044;-55
2022/10/20 11:08:17;;;;;;;15.95;9.70;;;13.30;99.90;;;;;;5090725;28;20073;-52
2022/10/20 11:10:46;;;;;;;15.77;8.77;;;13.30;99.90;;;;;;5093419;28;20024;-52
2022/10/20 11:13:54;;;;;;;14.98;9.10;;;13.30;99.90;;;;;;5092557;28;20020;-55
2022/10/20 11:16:28;;;;;;;16.58;9.02;;;13.40;99.90;;;;;;5080773;28;20028;-58
2022/10/20 11:19:12;;;;;;;16.15;9.32;;;13.50;99.90;;;;;;5101653;28;20096;-53
2022/10/20 11:22:12;;;;;;;17.95;9.40;;;13.50;99.90;;;;;;5095817;28;20024;-57
2022/10/20 11:25:01;;;;;;;19.13;9.25;;;13.60;99.90;;;;;;5095112;28;20040;-54
2022/10/20 11:27:32;;;;;;;15.70;9.77;;;13.60;99.90;;;;;;5090206;28;20051;-52
2022/10/20 11:30:07;;;;;;;;;;;13.60;99.90;;;;;;5095285;28;20039;-51
2022/10/20 11:32:41;;;;;;;16.38;8.82;;;13.60;99.90;;;;;;5093846;28;19904;-54
2022/10/20 11:35:27;;;;;;;16.52;9.02;;;13.60;99.90;;;;;;5094487;28;20488;-58
2022/10/20 11:38:09;;;;;;;18.00;10.25;;;13.70;99.90;;;;;;5096884;28;20478;-56
2022/10/20 11:40:39;;;;;;;14.45;9.32;;;13.70;99.90;;;;;;5094095;28;20036;-56
2022/10/20 11:43:22;;;;;;;16.65;9.88;;;13.70;99.90;;;;;;5093962;28;20032;-62
2022/10/20 11:45:55;;;;;;;18.42;9.80;;;13.70;99.90;;;;;;5073992;28;20028;-55
2022/10/20 11:48:30;;;;;;;13.88;8.93;;;13.70;99.90;;;;;;5073543;28;20075;-57
2022/10/20 11:51:12;;;;;;;17.85;9.30;;;13.70;99.90;;;;;;5074516;28;20021;-55
2022/10/20 11:53:44;;;;;;;18.35;10.20;;;13.80;99.90;;;;;;5106486;28;20462;-58
2022/10/20 11:56:41;;;;;;;18.75;11.05;;;13.80;99.90;;;;;;5097913;28;20346;-53
2022/10/20 11:59:38;;;;;;;13.55;9.35;;;13.80;99.90;;;;;;5094453;28;20036;-55
2022/10/20 12:02:17;;;;;;;15.70;9.85;;;13.90;99.90;;;;;;5084671;28;20081;-56
2022/10/20 12:05:10;;;;;;;16.70;9.60;;;13.90;99.90;;;;;;5098795;28;20031;-60
2022/10/20 12:08:13;;;;;;;15.93;9.88;;;13.90;99.90;;;;;;5095931;28;20430;-52
2022/10/20 12:11:19;;;;;;;15.57;9.23;;;14.00;99.90;;;;;;5092137;28;20762;-51
2022/10/20 12:13:51;;;;;;;18.05;10.73;;;14.00;99.90;;;;;;5092162;28;20051;-54
2022/10/20 12:16:50;;;;;;;17.65;10.35;;;14.00;99.90;;;;;;5104569;28;20027;-55
2022/10/20 12:19:22;;;;;;;17.33;10.23;;;14.00;99.90;;;;;;5073443;28;20127;-52
2022/10/20 12:22:03;;;;;;;16.48;9.80;;;14.10;99.90;;;;;;5084333;28;20403;-53
2022/10/20 12:24:33;;;;;;;16.65;9.05;;;14.00;99.90;;;;;;5094127;28;20404;-52
2022/10/20 12:27:07;;;;;;;19.75;10.43;;;14.00;99.90;;;;;;5095561;28;20020;-51
2022/10/20 12:29:32;;;;;;;17.55;10.20;;;14.00;99.90;;;;;;5093485;28;20043;-50
2022/10/20 12:32:20;;;;;;;20.80;10.90;;;14.00;99.90;;;;;;5093339;28;20024;-55
2022/10/20 12:34:48;;;;;;;17.70;10.57;;;13.90;99.90;;;;;;5093822;28;20444;-55
2022/10/20 12:37:17;;;;;;;20.65;11.98;;;13.90;99.90;;;;;;5085814;28;20476;-53
2022/10/20 12:39:44;;;;;;;19.10;11.93;;;13.90;99.90;;;;;;5073412;28;20077;-51
2022/10/20 12:42:23;;;;;;;19.08;10.65;;;13.90;99.90;;;;;;5075419;28;20017;-51
2022/10/20 12:44:49;;;;;;;21.95;11.43;;;13.90;99.90;;;;;;5100099;28;20035;-56
2022/10/20 12:47:27;;;;;;;19.40;10.90;;;13.80;99.90;;;;;;5093220;28;20054;-55
2022/10/20 12:50:02;;;;;;;20.63;11.95;;;13.80;99.90;;;;;;5093111;28;20031;-59
2022/10/20 12:52:32;;;;;;;16.02;9.63;;;13.80;99.90;;;;;;5072928;28;20421;-59
2022/10/20 12:55:21;;;;;;;17.63;10.90;;;13.80;99.90;;;;;;5073321;28;20226;-56
2022/10/20 12:57:47;;;;;;;20.83;11.63;;;13.80;99.90;;;;;;5072049;28;20425;-56
2022/10/20 13:00:20;;;;;;;15.75;9.43;;;13.80;99.90;;;;;;5091836;28;20484;-52
2022/10/20 13:02:48;;;;;;;16.30;9.85;;;13.80;99.90;;;;;;5091203;28;20035;-55
2022/10/20 13:05:14;;;;;;;17.10;9.40;;;13.80;99.90;;;;;;5091277;28;20043;-51